Time;durP1;ratioP1;P1;durP2;ratioP2;P2;SDS_P1;SDS_P2;PMS_P1;PMS_P2;Temp;Humidity;BMP_temperature;BMP_pressure;BME280_temperature;BME280_humidity;BME280_pressure;Samples;Min_cycle;Max_cycle;Signal;HPM_P1;HPM_P2
2023/05/22 00:02:21;;;;;;;10.13;6.80;;;;;;;14.68;55.99;93642.03;4956940;28;20066;-72
2023/05/22 00:04:46;;;;;;;12.90;6.72;;;;;;;14.60;56.99;93652.56;4958748;28;20057;-72
2023/05/22 00:07:12;;;;;;;11.05;6.57;;;;;;;14.68;57.19;93647.38;4957105;28;20027;-74
2023/05/22 00:09:37;;;;;;;10.80;6.47;;;;;;;14.67;57.16;93640.50;4956410;28;20866;-74
2023/05/22 00:12:03;;;;;;;10.98;7.43;;;;;;;14.76;57.47;93635.75;4956097;28;20576;-73
2023/05/22 00:14:28;;;;;;;9.32;6.55;;;;;;;14.73;57.52;93641.78;4958108;28;20106;-73
2023/05/22 00:16:55;;;;;;;7.57;6.10;;;;;;;14.79;57.76;93648.44;4957305;28;20067;-73
2023/05/22 00:19:21;;;;;;;9.75;7.05;;;;;;;14.82;57.79;93639.72;4951646;28;20042;-73
2023/05/22 00:21:47;;;;;;;9.82;6.65;;;;;;;14.77;57.50;93623.91;4953138;28;20042;-73
2023/05/22 00:24:12;;;;;;;7.65;6.28;;;;;;;14.95;57.79;93641.22;4943401;28;20031;-74
2023/05/22 00:26:38;;;;;;;7.78;6.93;;;;;;;14.95;57.53;93642.00;4956829;28;20023;-73
2023/05/22 00:29:04;;;;;;;7.88;6.13;;;;;;;14.94;57.29;93639.66;4955927;28;20453;-73
2023/05/22 00:31:30;;;;;;;8.75;6.43;;;;;;;14.85;57.28;93620.31;4959517;28;20701;-73
2023/05/22 00:33:56;;;;;;;7.15;6.07;;;;;;;15.04;56.95;93639.16;4957861;28;20039;-73
2023/05/22 00:36:21;;;;;;;7.88;6.68;;;;;;;15.03;56.78;93626.88;4957668;28;20790;-73
2023/05/22 00:38:47;;;;;;;9.48;6.38;;;;;;;14.79;57.19;93627.03;4961322;28;20027;-73
2023/05/22 00:41:12;;;;;;;12.73;6.70;;;;;;;14.72;57.65;93638.31;4957746;28;20042;-74
2023/05/22 00:43:38;;;;;;;10.63;6.60;;;;;;;14.82;57.32;93650.41;4956127;28;20424;-72
2023/05/22 00:46:06;;;;;;;12.52;6.60;;;;;;;14.55;57.41;93601.94;4957507;28;20175;-74
2023/05/22 00:48:31;;;;;;;8.15;6.78;;;;;;;14.97;57.11;93644.31;4954085;28;20106;-73
2023/05/22 00:50:59;;;;;;;14.95;7.20;;;;;;;15.01;56.68;93639.81;4956092;28;20653;-73
2023/05/22 00:53:27;;;;;;;12.23;6.75;;;;;;;15.04;56.47;93644.50;4959629;28;20031;-74
2023/05/22 00:55:53;;;;;;;8.05;6.50;;;;;;;15.01;56.77;93645.19;4959843;28;20038;-73
2023/05/22 00:58:20;;;;;;;10.02;6.53;;;;;;;15.04;56.48;93633.78;4957329;28;20051;-74
2023/05/22 01:00:46;;;;;;;10.60;7.10;;;;;;;15.02;56.21;93626.09;4951002;28;20229;-73
2023/05/22 01:03:12;;;;;;;9.82;7.40;;;;;;;15.07;56.71;93649.16;4939812;28;20464;-74
2023/05/22 01:05:39;;;;;;;10.98;7.65;;;;;;;14.99;56.87;93639.41;4957021;28;20580;-73
2023/05/22 01:08:06;;;;;;;9.98;7.35;;;;;;;14.96;56.70;93634.75;4951229;28;20034;-75
2023/05/22 01:10:33;;;;;;;18.92;7.72;;;;;;;15.11;56.48;93649.28;4949310;28;20035;-74
2023/05/22 01:13:33;;;;;;;10.13;7.43;;;;;;;15.05;56.52;93648.75;4953342;28;20050;-73
2023/05/22 01:16:09;;;;;;;13.75;7.70;;;;;;;14.94;56.95;93645.00;4957884;28;20175;-73
2023/05/22 01:18:41;;;;;;;11.75;8.20;;;;;;;14.88;56.72;93620.38;4956649;28;20748;-73
2023/05/22 01:21:22;;;;;;;11.30;6.45;;;;;;;14.97;56.64;93638.97;4960593;28;20031;-73
2023/05/22 01:24:14;;;;;;;9.05;6.53;;;;;;;14.92;56.98;93637.31;4960580;28;20034;-74
2023/05/22 01:27:10;;;;;;;8.68;7.40;;;;;;;14.92;57.09;93641.88;4952649;28;20047;-73
2023/05/22 01:29:38;;;;;;;9.25;7.25;;;;;;;14.86;57.14;93640.59;4955677;28;20446;-73
2023/05/22 01:32:04;;;;;;;8.82;6.85;;;;;;;14.90;56.84;93638.78;4954812;28;20038;-73
2023/05/22 01:34:33;;;;;;;8.70;7.43;;;;;;;14.83;57.17;93634.03;4956226;28;20513;-74
2023/05/22 01:36:59;;;;;;;9.18;6.88;;;;;;;14.85;57.05;93628.34;4954619;28;20090;-74
2023/05/22 01:39:27;;;;;;;10.48;6.57;;;;;;;14.84;56.97;93634.81;4958404;28;20031;-73
2023/05/22 01:41:52;;;;;;;12.85;7.15;;;;;;;14.75;56.80;93634.19;4956457;28;20561;-72
2023/05/22 01:44:18;;;;;;;15.32;7.93;;;;;;;14.72;56.85;93627.59;4955086;28;20058;-73
2023/05/22 01:46:43;;;;;;;8.68;6.72;;;;;;;14.53;57.18;93604.19;4954704;28;20400;-74
2023/05/22 01:49:09;;;;;;;10.07;6.95;;;;;;;14.63;56.69;93618.19;4953850;28;20049;-72
2023/05/22 01:52:02;;;;;;;9.73;7.13;;;;;;;14.60;56.91;93628.47;4956388;28;20476;-75
2023/05/22 01:54:37;;;;;;;13.57;8.43;;;;;;;14.45;57.50;93634.53;4955473;28;20035;-73
2023/05/22 01:57:07;;;;;;;12.05;9.20;;;;;;;14.45;57.73;93631.84;4955405;28;20031;-73
2023/05/22 01:59:48;;;;;;;20.08;11.50;;;;;;;14.43;57.78;93631.41;4958996;28;20030;-74
2023/05/22 02:02:18;;;;;;;17.38;12.13;;;;;;;14.28;58.17;93610.72;4960813;28;20038;-73
2023/05/22 02:04:59;;;;;;;14.35;9.70;;;;;;;14.25;58.34;93607.97;4960613;28;20043;-73
2023/05/22 02:07:26;;;;;;;14.73;9.15;;;;;;;14.39;57.96;93627.84;4959429;28;20032;-74
2023/05/22 02:09:54;;;;;;;12.38;8.05;;;;;;;14.39;57.92;93627.84;4960390;28;20402;-73
2023/05/22 02:12:21;;;;;;;10.27;7.55;;;;;;;14.32;58.04;93627.69;4958348;28;20058;-72
2023/05/22 02:14:47;;;;;;;8.50;7.05;;;;;;;14.06;59.05;93625.41;4966356;28;20797;-72
2023/05/22 02:17:13;;;;;;;10.88;7.20;;;;;;;14.10;58.83;93633.53;4959492;28;20039;-73
2023/05/22 02:19:38;;;;;;;11.05;8.05;;;;;;;14.26;58.48;93631.69;4959841;28;20042;-73
2023/05/22 02:22:03;;;;;;;12.07;9.48;;;;;;;14.09;58.56;93613.25;4960112;28;20038;-72
2023/05/22 02:24:31;;;;;;;15.68;11.52;;;;;;;14.08;58.77;93625.84;4960502;28;20039;-74
2023/05/22 02:26:57;;;;;;;25.48;17.25;;;;;;;14.08;58.48;93619.72;4959863;28;20126;-73
2023/05/22 02:29:23;;;;;;;31.25;19.25;;;;;;;14.10;59.01;93628.19;4958516;28;20133;-73
2023/05/22 02:31:48;;;;;;;23.17;15.95;;;;;;;14.02;59.15;93626.44;4959052;28;20143;-73
2023/05/22 02:34:13;;;;;;;22.70;14.13;;;;;;;13.97;59.26;93622.09;4957723;28;20402;-73
2023/05/22 02:36:39;;;;;;;37.15;24.02;;;;;;;13.99;58.85;93633.22;4958441;28;20039;-71
2023/05/22 02:39:05;;;;;;;29.70;23.23;;;;;;;13.91;59.24;93630.69;4963514;28;20031;-72
2023/05/22 02:41:30;;;;;;;31.88;21.80;;;;;;;13.95;59.10;93626.22;4957916;28;20102;-73
2023/05/22 02:43:56;;;;;;;23.92;16.52;;;;;;;13.78;59.15;93605.09;4961910;28;20054;-72
2023/05/22 02:46:21;;;;;;;21.88;12.95;;;;;;;13.76;59.20;93602.75;4963090;28;20038;-72
2023/05/22 02:48:46;;;;;;;15.68;10.68;;;;;;;13.73;59.41;93603.44;4960412;28;20114;-73
2023/05/22 02:51:12;;;;;;;13.15;10.80;;;;;;;13.83;59.21;93612.88;4962532;28;20029;-74
2023/05/22 02:53:39;;;;;;;17.75;11.20;;;;;;;13.79;59.18;93617.34;4965747;28;20018;-72
2023/05/22 02:56:11;;;;;;;19.95;12.68;;;;;;;13.75;59.35;93601.97;4955159;28;20099;-72
2023/05/22 02:58:37;;;;;;;20.55;12.65;;;;;;;13.83;59.05;93607.53;4951218;28;20091;-72
2023/05/22 03:01:05;;;;;;;24.85;14.93;;;;;;;13.94;58.76;93620.09;4959469;28;20034;-72
2023/05/22 03:03:31;;;;;;;24.08;14.90;;;;;;;14.00;58.56;93613.38;4958998;28;20129;-73
2023/05/22 03:05:57;;;;;;;31.30;18.30;;;;;;;13.89;58.35;93606.16;4959418;28;20137;-73
2023/05/22 03:08:26;;;;;;;30.05;19.33;;;;;;;13.73;59.05;93603.44;4958670;28;20597;-72
2023/05/22 03:10:52;;;;;;;26.85;16.83;;;;;;;13.79;59.11;93609.34;4960815;28;20678;-72
2023/05/22 03:13:18;;;;;;;20.15;12.82;;;;;;;13.84;58.84;93619.78;4958866;28;20047;-73
2023/05/22 03:15:43;;;;;;;17.92;10.90;;;;;;;13.63;59.10;93599.34;4951785;28;20035;-72
2023/05/22 03:18:09;;;;;;;14.23;10.30;;;;;;;13.72;59.54;93621.38;4942807;28;20062;-73
2023/05/22 03:20:34;;;;;;;14.90;10.68;;;;;;;13.70;59.72;93614.78;4958427;28;20027;-72
2023/05/22 03:22:59;;;;;;;15.40;11.15;;;;;;;13.77;59.72;93624.91;4959524;28;20129;-74
2023/05/22 03:25:25;;;;;;;13.98;10.50;;;;;;;13.54;60.08;93604.00;4972677;28;20097;-73
2023/05/22 03:27:50;;;;;;;12.60;8.65;;;;;;;13.63;60.08;93614.59;4962793;28;20129;-73
2023/05/22 03:30:16;;;;;;;15.48;8.85;;;;;;;13.77;60.15;93619.56;4956992;28;20593;-73
2023/05/22 03:32:41;;;;;;;9.63;8.35;;;;;;;13.60;60.57;93608.00;4958965;28;20392;-73
2023/05/22 03:35:07;;;;;;;8.85;7.03;;;;;;;13.74;60.61;93627.13;4956021;28;20111;-73
2023/05/22 03:37:32;;;;;;;9.80;7.00;;;;;;;13.78;60.42;93626.50;4957804;28;20038;-72
2023/05/22 03:39:58;;;;;;;14.77;6.95;;;;;;;13.66;60.48;93609.34;4956733;28;20255;-73
2023/05/22 03:42:23;;;;;;;9.80;6.93;;;;;;;13.78;60.79;93605.88;4957933;28;20133;-71
2023/05/22 03:44:49;;;;;;;9.25;6.35;;;;;;;13.91;60.76;93620.00;4954717;28;20026;-73
2023/05/22 03:47:14;;;;;;;15.07;8.55;;;;;;;13.83;61.03;93618.25;4965006;28;20151;-74
2023/05/22 03:49:40;;;;;;;8.88;7.15;;;;;;;13.81;61.26;93607.09;4963339;28;20091;-74
2023/05/22 03:52:08;;;;;;;11.40;7.72;;;;;;;13.84;61.10;93611.78;4960015;28;20038;-73
2023/05/22 03:54:34;;;;;;;7.53;6.40;;;;;;;14.06;61.23;93624.63;4961346;28;20042;-72
2023/05/22 03:56:59;;;;;;;14.82;7.45;;;;;;;14.11;60.86;93624.41;4962015;28;20035;-74
2023/05/22 03:59:25;;;;;;;11.43;7.53;;;;;;;14.02;61.22;93611.16;4962763;28;20809;-74
2023/05/22 04:01:50;;;;;;;8.30;7.35;;;;;;;14.18;61.24;93624.56;4963256;28;20515;-74
2023/05/22 04:04:16;;;;;;;11.50;6.55;;;;;;;14.05;60.91;93593.66;4961691;28;20039;-75
2023/05/22 04:06:42;;;;;;;13.32;9.25;;;;;;;14.16;60.79;93611.56;4963943;28;20043;-74
2023/05/22 04:09:11;;;;;;;13.68;7.38;;;;;;;14.18;61.11;93619.22;4963345;28;20062;-73
2023/05/22 04:11:41;;;;;;;23.23;7.72;;;;;;;14.26;61.00;93617.53;4960225;28;20031;-71
2023/05/22 04:14:07;;;;;;;9.35;7.30;;;;;;;14.36;60.84;93631.22;4958505;28;20045;-74
2023/05/22 04:16:32;;;;;;;10.85;8.73;;;;;;;14.40;60.67;93624.06;4965380;28;20088;-73
2023/05/22 04:19:00;;;;;;;12.05;7.90;;;;;;;14.40;60.56;93629.41;4963036;28;20131;-73
2023/05/22 04:21:27;;;;;;;11.30;8.90;;;;;;;14.27;60.30;93619.09;4960373;28;20118;-75
2023/05/22 04:23:52;;;;;;;13.05;8.75;;;;;;;14.45;60.03;93626.50;4961543;28;20019;-74
2023/05/22 04:26:19;;;;;;;10.25;8.00;;;;;;;14.55;60.11;93639.41;4964255;28;20085;-74
2023/05/22 04:28:45;;;;;;;10.38;8.10;;;;;;;14.53;60.15;93625.59;4958302;28;20039;-73
2023/05/22 04:31:12;;;;;;;10.43;8.10;;;;;;;14.54;59.85;93615.66;4953109;28;20137;-73
2023/05/22 04:33:38;;;;;;;11.90;8.38;;;;;;;14.54;60.13;93634.41;4942912;28;20042;-74
2023/05/22 04:36:05;;;;;;;14.25;8.77;;;;;;;14.64;59.95;93639.25;4955952;28;20031;-73
2023/05/22 04:38:35;;;;;;;13.55;9.30;;;;;;;14.54;59.59;93623.69;4957737;28;20118;-73
2023/05/22 04:41:01;;;;;;;12.38;8.55;;;;;;;14.67;59.93;93640.50;4961061;28;20038;-73
2023/05/22 04:43:26;;;;;;;11.45;8.75;;;;;;;14.64;59.58;93641.16;4955642;28;20223;-74
2023/05/22 04:45:52;;;;;;;11.73;7.38;;;;;;;14.71;59.44;93631.44;4957849;28;20547;-73
2023/05/22 04:48:18;;;;;;;12.60;8.60;;;;;;;14.59;59.58;93626.91;4960646;28;20500;-72
2023/05/22 04:50:45;;;;;;;12.60;8.88;;;;;;;14.29;61.14;93608.84;4956723;28;20041;-73
2023/05/22 04:53:11;;;;;;;10.77;8.77;;;;;;;14.78;60.43;93649.56;4955182;28;20070;-73
2023/05/22 04:55:37;;;;;;;12.38;9.18;;;;;;;14.85;60.03;93642.50;4957675;28;20516;-72
2023/05/22 04:58:02;;;;;;;13.25;9.75;;;;;;;14.88;59.74;93635.66;4957327;28;20040;-74
2023/05/22 05:00:28;;;;;;;11.55;9.05;;;;;;;14.83;61.29;93649.31;4957695;28;20504;-74
2023/05/22 05:02:54;;;;;;;10.98;8.45;;;;;;;14.90;59.99;93644.16;4973221;28;20053;-73
2023/05/22 05:05:20;;;;;;;11.45;8.07;;;;;;;14.72;59.62;93610.75;4958970;28;20048;-74
2023/05/22 05:07:47;;;;;;;14.38;8.68;;;;;;;14.84;59.74;93624.88;4956659;28;20035;-74
2023/05/22 05:10:13;;;;;;;10.00;8.45;;;;;;;15.05;59.61;93640.72;4957484;28;20054;-73
2023/05/22 05:12:38;;;;;;;13.48;10.27;;;;;;;14.81;58.84;93641.63;4956658;28;20051;-73
2023/05/22 05:15:04;;;;;;;13.48;9.15;;;;;;;14.98;60.16;93640.50;4955877;28;20034;-73
2023/05/22 05:17:29;;;;;;;19.15;9.13;;;;;;;15.31;59.07;93653.56;4958690;28;20076;-74
2023/05/22 05:19:55;;;;;;;15.45;8.60;;;;;;;14.87;58.50;93580.56;4956024;28;20051;-73
2023/05/22 05:22:20;;;;;;;12.45;9.25;;;;;;;15.27;58.28;93640.09;4955157;28;20047;-73
2023/05/22 05:24:45;;;;;;;12.32;9.68;;;;;;;15.12;58.67;93648.91;4957516;28;20066;-73
2023/05/22 05:27:11;;;;;;;14.68;9.68;;;;;;;15.33;57.76;93651.34;4960999;28;20065;-74
2023/05/22 05:29:37;;;;;;;18.00;10.48;;;;;;;15.36;57.13;93659.44;4953933;28;20026;-74
2023/05/22 05:32:02;;;;;;;13.18;9.60;;;;;;;15.18;56.44;93628.78;4953203;28;20888;-74
2023/05/22 05:34:30;;;;;;;11.30;9.82;;;;;;;15.37;56.78;93657.56;4956259;28;20716;-75
2023/05/22 05:36:58;;;;;;;11.32;8.68;;;;;;;15.48;56.82;93658.63;4946125;28;20066;-73
2023/05/22 05:39:24;;;;;;;10.65;7.93;;;;;;;15.63;55.51;93651.69;4959621;28;20047;-73
2023/05/22 05:41:49;;;;;;;15.05;10.25;;;;;;;15.54;55.48;93651.88;4961968;28;20874;-73
2023/05/22 05:44:14;;;;;;;12.68;9.07;;;;;;;15.78;54.53;93656.25;4958268;28;20393;-74
2023/05/22 05:46:41;;;;;;;11.20;8.70;;;;;;;15.63;54.88;93649.78;4958118;28;20077;-73
2023/05/22 05:49:10;;;;;;;14.23;8.30;;;;;;;16.00;54.05;93662.84;4960929;28;20534;-73
2023/05/22 05:51:36;;;;;;;14.77;8.98;;;;;;;15.99;53.45;93659.38;4959667;28;20085;-73
2023/05/22 05:54:02;;;;;;;19.98;10.52;;;;;;;15.74;54.10;93666.13;4958172;28;20023;-74
2023/05/22 05:56:27;;;;;;;15.55;8.77;;;;;;;15.85;53.11;93653.72;4960644;28;20034;-73
2023/05/22 05:58:53;;;;;;;14.63;8.10;;;;;;;15.98;53.44;93652.50;4961916;28;20039;-74
2023/05/22 06:01:18;;;;;;;8.50;6.88;;;;;;;16.05;53.36;93649.94;4958724;28;20081;-74
2023/05/22 06:03:44;;;;;;;10.40;7.53;;;;;;;16.25;53.06;93664.94;4959817;28;20500;-73
2023/05/22 06:06:10;;;;;;;12.85;5.97;;;;;;;16.22;51.79;93641.50;4960420;28;20034;-74
2023/05/22 06:08:39;;;;;;;14.73;6.55;;;;;;;15.94;52.59;93659.66;4958893;28;20092;-74
2023/05/22 06:11:04;;;;;;;8.70;6.47;;;;;;;16.22;52.46;93648.78;4963349;28;20065;-73
2023/05/22 06:13:30;;;;;;;12.27;6.30;;;;;;;16.36;50.96;93642.94;4960719;28;20501;-74
2023/05/22 06:15:55;;;;;;;9.35;5.70;;;;;;;16.36;50.18;93667.09;4958013;28;20032;-73
2023/05/22 06:18:22;;;;;;;14.00;5.97;;;;;;;16.20;50.92;93670.59;4964247;28;20545;-73
2023/05/22 06:20:49;;;;;;;10.80;5.38;;;;;;;16.23;50.38;93651.09;4966098;28;20031;-75
2023/05/22 06:23:19;;;;;;;9.13;6.00;;;;;;;16.72;49.02;93661.31;4969029;28;20039;-73
2023/05/22 06:25:45;;;;;;;10.52;5.25;;;;;;;16.67;48.46;93662.34;4960564;28;20215;-74
2023/05/22 06:28:11;;;;;;;8.40;5.63;;;;;;;16.59;49.09;93630.38;4959309;28;20660;-72
2023/05/22 06:30:39;;;;;;;9.85;5.72;;;;;;;16.78;48.64;93657.19;4960298;28;20043;-74
2023/05/22 06:33:07;;;;;;;14.18;5.80;;;;;;;16.57;48.82;93657.59;4957503;28;20118;-73
2023/05/22 06:35:36;;;;;;;7.07;5.15;;;;;;;16.46;48.38;93653.91;4962022;28;20035;-74
2023/05/22 06:38:02;;;;;;;12.73;4.88;;;;;;;16.07;48.28;93652.28;4963041;28;20039;-72
2023/05/22 06:40:27;;;;;;;10.75;4.32;;;;;;;16.21;48.70;93650.69;4959451;28;20034;-73
2023/05/22 06:42:57;;;;;;;7.75;3.55;;;;;;;16.08;46.50;93664.56;4950076;28;20439;-74
2023/05/22 06:45:26;;;;;;;13.52;4.03;;;;;;;15.56;46.46;93659.56;4947904;28;20074;-72
2023/05/22 06:47:56;;;;;;;10.75;4.00;;;;;;;15.56;47.27;93659.56;4954226;28;20089;-73
2023/05/22 06:50:24;;;;;;;6.28;4.22;;;;;;;15.28;47.57;93652.38;4952242;28;20054;-74
2023/05/22 06:52:50;;;;;;;8.50;3.58;;;;;;;15.55;47.28;93660.69;4952472;28;20035;-72
2023/05/22 06:55:17;;;;;;;8.23;3.72;;;;;;;15.85;47.12;93651.81;4946964;28;20038;-74
2023/05/22 06:57:43;;;;;;;7.55;3.42;;;;;;;15.95;47.02;93663.91;4947293;28;20078;-73
2023/05/22 07:00:11;;;;;;;10.20;4.10;;;;;;;15.36;46.80;93662.13;4948853;28;20115;-72
2023/05/22 07:02:38;;;;;;;13.32;6.50;;;;;;;15.22;46.86;93664.47;4956545;28;20472;-74
2023/05/22 07:05:04;;;;;;;10.32;4.25;;;;;;;14.96;47.72;93650.81;4946840;28;20047;-73
2023/05/22 07:07:32;;;;;;;12.95;4.10;;;;;;;15.40;48.95;93668.34;4952147;28;20031;-74
2023/05/22 07:09:57;;;;;;;12.30;4.07;;;;;;;15.13;48.25;93669.22;4943728;28;20081;-73
2023/05/22 07:12:26;;;;;;;13.82;4.18;;;;;;;15.43;47.99;93667.69;4946781;28;20059;-74
2023/05/22 07:14:55;;;;;;;7.57;4.32;;;;;;;15.57;46.73;93650.41;4954227;28;20061;-73
2023/05/22 07:17:22;;;;;;;8.80;4.30;;;;;;;15.60;47.93;93630.94;4949798;28;20121;-74
2023/05/22 07:19:47;;;;;;;9.52;5.15;;;;;;;15.93;47.46;93662.72;4952363;28;20042;-73
2023/05/22 07:22:14;;;;;;;10.50;4.40;;;;;;;15.84;47.73;93662.91;4950379;28;20039;-72
2023/05/22 07:24:40;;;;;;;6.78;3.95;;;;;;;15.60;46.75;93649.69;4951704;28;20058;-73
2023/05/22 07:27:05;;;;;;;8.63;5.40;;;;;;;15.84;46.82;93654.88;4952797;28;20023;-73
2023/05/22 07:29:31;;;;;;;14.30;5.50;;;;;;;16.01;47.05;93651.78;4955193;28;20019;-73
2023/05/22 07:31:57;;;;;;;6.15;4.22;;;;;;;16.31;47.32;93657.44;4951865;28;20049;-74
2023/05/22 07:34:30;;;;;;;11.05;5.15;;;;;;;16.36;46.59;93643.72;4951162;28;20038;-74
2023/05/22 07:36:56;;;;;;;9.20;4.50;;;;;;;16.72;46.28;93650.56;4950868;28;20366;-74
2023/05/22 07:39:22;;;;;;;11.93;5.45;;;;;;;16.60;47.36;93639.97;4944162;28;20060;-74
2023/05/22 07:41:50;;;;;;;10.07;5.45;;;;;;;16.35;47.67;93644.84;4953631;28;20031;-73
2023/05/22 07:44:18;;;;;;;14.50;6.05;;;;;;;16.51;47.55;93653.63;4949374;28;20051;-74
2023/05/22 07:46:45;;;;;;;11.90;6.40;;;;;;;16.67;47.12;93648.19;4946733;28;20066;-74
2023/05/22 07:49:18;;;;;;;8.77;5.40;;;;;;;16.54;48.02;93649.44;4950271;28;20053;-73
2023/05/22 07:51:44;;;;;;;13.25;5.70;;;;;;;16.35;47.95;93647.53;4965008;28;20073;-73
2023/05/22 07:54:17;;;;;;;12.35;6.30;;;;;;;16.24;47.44;93652.66;4954575;28;20037;-74
2023/05/22 07:56:44;;;;;;;7.00;5.20;;;;;;;16.32;47.54;93637.53;4949390;28;20357;-74
2023/05/22 07:59:13;;;;;;;22.33;6.00;;;;;;;16.51;47.49;93644.78;4940008;28;20568;-73
2023/05/22 08:01:44;;;;;;;14.40;6.38;;;;;;;16.67;46.58;93646.25;4953307;28;20472;-74
2023/05/22 08:04:10;;;;;;;14.10;6.13;;;;;;;16.87;47.38;93644.31;4945764;28;20397;-73
2023/05/22 08:06:35;;;;;;;9.75;5.95;;;;;;;16.35;47.86;93658.28;4944489;28;20035;-74
2023/05/22 08:09:03;;;;;;;7.85;5.43;;;;;;;16.24;47.82;93649.97;4954572;28;20035;-75
2023/05/22 08:11:30;;;;;;;10.57;4.78;;;;;;;16.44;48.15;93633.91;4946496;28;20034;-74
2023/05/22 08:13:56;;;;;;;10.88;5.40;;;;;;;16.42;48.16;93649.59;4940870;28;20530;-74
2023/05/22 08:16:21;;;;;;;13.23;5.30;;;;;;;16.42;47.50;93660.34;4937786;28;20043;-72
2023/05/22 08:18:53;;;;;;;10.90;5.60;;;;;;;16.60;47.09;93658.78;4921657;28;20055;-73
2023/05/22 08:21:20;;;;;;;13.00;5.65;;;;;;;16.77;47.68;93647.56;4939318;28;21360;-73
2023/05/22 08:23:46;;;;;;;17.23;5.45;;;;;;;16.87;46.21;93652.38;4956017;28;20027;-73
2023/05/22 08:26:11;;;;;;;10.75;4.45;;;;;;;17.01;46.71;93636.50;4944816;28;20458;-73
2023/05/22 08:28:40;;;;;;;6.63;4.03;;;;;;;17.02;43.85;93631.91;4947134;28;20474;-73
2023/05/22 08:31:06;;;;;;;12.45;4.47;;;;;;;17.08;44.76;93646.59;4938979;28;20379;-74
2023/05/22 08:33:33;;;;;;;7.10;4.07;;;;;;;17.18;45.30;93646.81;4942780;28;20071;-74
2023/05/22 08:36:00;;;;;;;12.98;4.90;;;;;;;16.88;45.53;93648.56;4941328;28;20027;-73
2023/05/22 08:38:26;;;;;;;7.55;4.15;;;;;;;16.61;44.17;93644.22;4942437;28;20388;-73
2023/05/22 08:40:53;;;;;;;7.20;4.28;;;;;;;16.99;43.73;93654.91;4944189;28;20396;-73
2023/05/22 08:43:20;;;;;;;5.95;3.65;;;;;;;16.90;43.84;93629.41;4945515;28;20513;-74
2023/05/22 08:45:56;;;;;;;16.92;3.33;;;;;;;17.29;43.47;93647.00;4941967;28;20039;-73
2023/05/22 08:48:26;;;;;;;10.35;3.70;;;;;;;17.27;43.87;93638.53;4938997;28;20604;-74
2023/05/22 08:50:59;;;;;;;7.28;3.55;;;;;;;17.43;43.41;93638.41;4943938;28;20798;-73
2023/05/22 08:53:27;;;;;;;6.82;3.55;;;;;;;16.90;44.47;93650.91;4940442;28;20582;-73
2023/05/22 08:55:52;;;;;;;6.82;3.75;;;;;;;16.91;44.10;93647.09;4940413;28;20506;-72
2023/05/22 08:58:19;;;;;;;8.07;3.35;;;;;;;17.46;43.09;93640.34;4944507;28;20058;-72
2023/05/22 09:00:44;;;;;;;6.47;3.20;;;;;;;17.39;42.81;93629.50;4943746;28;20727;-74
2023/05/22 09:03:12;;;;;;;4.28;3.13;;;;;;;17.49;41.94;93627.00;4941445;28;20039;-72
2023/05/22 09:05:40;;;;;;;3.45;2.78;;;;;;;17.70;42.31;93615.75;4942645;28;20482;-74
2023/05/22 09:08:09;;;;;;;5.78;3.17;;;;;;;17.47;41.70;93628.47;4943478;28;20953;-74
2023/05/22 09:10:36;;;;;;;5.25;3.38;;;;;;;17.35;40.38;93634.81;4949797;28;20031;-74
2023/05/22 09:13:06;;;;;;;3.58;2.67;;;;;;;17.48;40.42;93630.03;4953828;28;20070;-73
2023/05/22 09:15:35;;;;;;;8.85;2.53;;;;;;;17.64;39.96;93633.34;4952923;28;20066;-74
2023/05/22 09:18:05;;;;;;;6.40;2.65;;;;;;;17.38;39.51;93631.41;4957419;28;20033;-74
2023/05/22 09:20:35;;;;;;;16.92;3.22;;;;;;;17.42;40.31;93626.09;4957347;28;20037;-72
2023/05/22 09:23:01;;;;;;;7.60;2.72;;;;;;;17.52;38.94;93622.78;4954529;28;20039;-73
2023/05/22 09:25:27;;;;;;;6.90;2.67;;;;;;;17.34;38.72;93619.84;4956218;28;20042;-73
2023/05/22 09:27:52;;;;;;;5.95;2.78;;;;;;;17.07;38.12;93624.34;4955535;28;20531;-74
2023/05/22 09:30:19;;;;;;;7.50;2.88;;;;;;;17.32;39.77;93613.25;4953906;28;20055;-73
2023/05/22 09:32:47;;;;;;;6.70;3.30;;;;;;;17.59;40.66;93629.06;4954712;28;20089;-74
2023/05/22 09:35:16;;;;;;;5.95;2.15;;;;;;;17.81;38.80;93624.75;4954106;28;20046;-74
2023/05/22 09:37:41;;;;;;;10.07;3.00;;;;;;;17.47;37.89;93631.16;4952773;28;20050;-74
2023/05/22 09:40:15;;;;;;;5.35;2.35;;;;;;;17.34;38.12;93632.50;4954988;28;20035;-72
2023/05/22 09:42:44;;;;;;;9.52;2.85;;;;;;;17.09;40.14;93619.38;4957857;28;20039;-74
2023/05/22 09:45:10;;;;;;;9.75;2.70;;;;;;;17.24;39.34;93627.72;4948472;28;20030;-72
2023/05/22 09:47:37;;;;;;;5.47;2.78;;;;;;;17.22;38.71;93597.72;4954435;28;20022;-71
2023/05/22 09:50:05;;;;;;;4.97;2.67;;;;;;;17.66;38.72;93623.00;4954066;28;20132;-73
2023/05/22 09:52:35;;;;;;;5.72;2.15;;;;;;;17.55;38.49;93627.47;4973550;28;20085;-73
2023/05/22 09:55:08;;;;;;;5.65;3.30;;;;;;;17.44;40.39;93631.88;4958149;28;20038;-72
2023/05/22 09:57:42;;;;;;;7.28;3.20;;;;;;;17.38;39.18;93631.41;4957672;28;20534;-73
2023/05/22 10:00:11;;;;;;;9.57;3.00;;;;;;;17.31;39.67;93619.75;4958012;28;20094;-72
2023/05/22 10:02:40;;;;;;;5.18;2.58;;;;;;;17.47;39.24;93631.16;4959016;28;20060;-73
2023/05/22 10:05:08;;;;;;;6.53;2.95;;;;;;;17.02;39.50;93626.53;4958488;28;20138;-73
2023/05/22 10:07:49;;;;;;;9.07;3.67;;;;;;;17.47;39.89;93636.53;4949283;28;20042;-73
2023/05/22 10:10:19;;;;;;;6.22;3.13;;;;;;;17.53;39.70;93629.72;4958892;28;20039;-73
2023/05/22 10:12:55;;;;;;;11.70;2.63;;;;;;;17.20;40.66;93640.31;4956990;28;20044;-73
2023/05/22 10:15:21;;;;;;;6.22;3.40;;;;;;;17.21;41.14;93639.94;4959018;28;20548;-74
2023/05/22 10:17:49;;;;;;;5.30;3.53;;;;;;;17.41;42.29;93640.66;4955579;28;20031;-73
2023/05/22 10:20:16;;;;;;;5.28;3.58;;;;;;;17.69;42.30;93629.59;4958115;28;20046;-73
2023/05/22 10:22:42;;;;;;;7.15;3.53;;;;;;;18.38;42.83;93636.31;4953037;28;20038;-73
2023/05/22 10:25:10;;;;;;;8.48;3.88;;;;;;;17.76;40.41;93638.53;4946194;28;20564;-74
2023/05/22 10:27:37;;;;;;;9.15;3.00;;;;;;;17.50;42.02;93635.84;4939569;28;20039;-74
2023/05/22 10:30:31;;;;;;;5.35;4.13;;;;;;;17.71;43.91;93640.75;4952037;28;20027;-73
2023/05/22 10:33:19;;;;;;;4.93;3.25;;;;;;;17.70;44.64;93639.22;4953000;28;20019;-72
2023/05/22 10:35:51;;;;;;;8.70;3.97;;;;;;;16.99;45.85;93654.13;4951194;28;20067;-72
2023/05/22 10:38:26;;;;;;;7.20;4.50;;;;;;;16.42;47.51;93658.44;4946784;28;20126;-73
2023/05/22 10:40:53;;;;;;;7.60;4.95;;;;;;;16.21;48.12;93650.69;4944163;28;20035;-73
2023/05/22 10:43:21;;;;;;;24.02;5.93;;;;;;;15.78;53.00;93666.97;4939941;28;20039;-73
2023/05/22 10:45:46;;;;;;;15.45;6.65;;;;;;;14.95;67.31;93694.78;4949751;28;20042;-73
2023/05/22 10:48:13;;;;;;;11.38;5.35;;;;;;;15.35;64.43;93676.66;4950263;28;20023;-72
2023/05/22 10:50:51;;;;;;;11.70;4.57;;;;;;;15.05;64.56;93670.16;4955408;28;20684;-73
2023/05/22 10:53:22;;;;;;;12.35;5.10;;;;;;;15.58;64.86;93678.75;4944913;28;20421;-73
2023/05/22 10:55:55;;;;;;;9.13;3.72;;;;;;;15.88;61.93;93666.44;4954630;28;20037;-73
2023/05/22 10:58:28;;;;;;;10.45;4.82;;;;;;;16.54;62.59;93670.91;4953545;28;20054;-72
2023/05/22 11:01:09;;;;;;;7.43;4.22;;;;;;;16.87;61.19;93663.09;4951468;28;20619;-72
2023/05/22 11:03:59;;;;;;;6.93;3.95;;;;;;;17.05;57.48;93650.78;4952245;28;20331;-73
2023/05/22 11:06:37;;;;;;;5.50;3.60;;;;;;;17.26;57.53;93655.03;4938596;28;20041;-73
2023/05/22 11:09:30;;;;;;;9.05;3.85;;;;;;;17.25;56.77;93653.47;4945630;28;20027;-73
2023/05/22 11:12:12;;;;;;;6.32;4.25;;;;;;;17.41;55.50;93651.41;4961872;28;20055;-72
2023/05/22 11:14:37;;;;;;;5.80;4.07;;;;;;;17.28;52.58;93615.09;4949053;28;21206;-73
2023/05/22 11:17:05;;;;;;;6.40;3.70;;;;;;;17.37;53.47;93626.38;4952159;28;20039;-72
2023/05/22 11:19:31;;;;;;;6.65;4.25;;;;;;;17.56;54.76;93637.84;4948459;28;20049;-72
2023/05/22 11:22:01;;;;;;;4.88;3.95;;;;;;;17.73;54.34;93639.25;4950589;28;20047;-73
2023/05/22 11:24:35;;;;;;;8.48;4.00;;;;;;;17.87;51.53;93633.28;4953083;28;20046;-73
2023/05/22 11:27:05;;;;;;;8.37;3.73;;;;;;;17.98;50.56;93629.66;4953242;28;20106;-73
2023/05/22 11:29:32;;;;;;;7.63;4.43;;;;;;;18.02;54.06;93630.47;4950036;28;20034;-72
2023/05/22 11:32:02;;;;;;;7.20;4.35;;;;;;;17.96;54.93;93631.16;4938692;28;20202;-73